Time;durP1;ratioP1;P1;durP2;ratioP2;P2;SDS_P1;SDS_P2;PMS_P1;PMS_P2;Temp;Humidity;BMP_temperature;BMP_pressure;BME280_temperature;BME280_humidity;BME280_pressure;Samples;Min_cycle;Max_cycle;Signal;HPM_P1;HPM_P2
2023/02/03 00:01:03;;;;;;;3.30;2.55;;;;;;;3.58;100.00;99158.41;4193022;28;20055;-75
2023/02/03 00:03:03;;;;;;;3.72;2.50;;;;;;;3.61;100.00;99150.34;4191693;28;20043;-76
2023/02/03 00:05:04;;;;;;;4.13;2.40;;;;;;;3.63;100.00;99156.31;4190749;28;20106;-76
2023/02/03 00:07:04;;;;;;;3.40;2.47;;;;;;;3.69;100.00;99143.31;4192642;28;20181;-76
2023/02/03 00:09:05;;;;;;;3.67;2.80;;;;;;;3.66;100.00;99146.69;4192498;28;20387;-76
2023/02/03 00:11:05;;;;;;;3.50;2.60;;;;;;;3.73;100.00;99147.03;4196181;28;20041;-76
2023/02/03 00:13:07;;;;;;;3.47;2.50;;;;;;;3.72;100.00;99148.13;4192712;28;20032;-76
2023/02/03 00:15:08;;;;;;;3.22;2.30;;;;;;;3.80;100.00;99144.63;4192575;28;20040;-76
2023/02/03 00:17:08;;;;;;;5.28;2.70;;;;;;;3.80;100.00;99141.88;4192218;28;20406;-76
2023/02/03 00:19:09;;;;;;;3.80;2.40;;;;;;;3.83;100.00;99138.53;4193278;28;20446;-76
2023/02/03 00:21:09;;;;;;;3.65;2.60;;;;;;;3.88;100.00;99121.94;4197262;28;20123;-75
2023/02/03 00:23:11;;;;;;;3.45;2.58;;;;;;;3.84;100.00;99122.91;4193766;28;20139;-75
2023/02/03 00:25:11;;;;;;;3.40;2.30;;;;;;;3.80;100.00;99119.97;4192130;28;20493;-75
2023/02/03 00:27:13;;;;;;;3.95;2.60;;;;;;;3.82;100.00;99120.50;4192311;28;20306;-76
2023/02/03 00:29:13;;;;;;;3.95;2.40;;;;;;;3.82;100.00;99116.94;4191955;28;20512;-76
2023/02/03 00:31:20;;;;;;;3.53;2.55;;;;;;;3.80;100.00;99121.91;4191792;28;20123;-76
2023/02/03 00:33:20;;;;;;;4.70;2.20;;;;;;;3.81;100.00;99118.88;4190682;28;20048;-76
2023/02/03 00:35:21;;;;;;;3.50;2.70;;;;;;;3.89;100.00;99111.81;4191936;28;20041;-76
2023/02/03 00:37:22;;;;;;;2.78;2.20;;;;;;;3.94;100.00;99111.66;4192152;28;20048;-76
2023/02/03 00:39:22;;;;;;;3.90;2.53;;;;;;;3.98;100.00;99107.16;4190392;28;20131;-76
2023/02/03 00:41:28;;;;;;;4.45;2.63;;;;;;;3.94;100.00;99101.50;4191455;28;20477;-76
2023/02/03 00:43:28;;;;;;;4.22;2.58;;;;;;;3.94;100.00;99104.25;4190283;28;20066;-75
2023/02/03 00:45:28;;;;;;;3.38;2.22;;;;;;;3.92;100.00;99106.50;4191584;28;20162;-76
2023/02/03 00:47:29;;;;;;;3.50;2.42;;;;;;;4.01;100.00;99112.00;4191731;28;20439;-76
2023/02/03 00:49:29;;;;;;;3.33;2.30;;;;;;;3.98;100.00;99112.66;4190868;28;20077;-76
2023/02/03 00:51:30;;;;;;;3.95;2.55;;;;;;;3.98;100.00;99098.16;4191541;28;20048;-76
2023/02/03 00:53:30;;;;;;;4.15;2.95;;;;;;;3.99;100.00;99094.28;4191757;28;20115;-76
2023/02/03 00:55:31;;;;;;;4.60;2.70;;;;;;;4.03;100.00;99095.25;4192005;28;20157;-76
2023/02/03 00:57:31;;;;;;;4.45;2.92;;;;;;;4.03;100.00;99093.31;4191869;28;20036;-76
2023/02/03 00:59:32;;;;;;;3.85;2.63;;;;;;;4.06;100.00;99100.91;4191398;28;20041;-76
2023/02/03 01:01:33;;;;;;;3.88;2.60;;;;;;;4.02;100.00;99094.44;4191967;28;20056;-76
2023/02/03 01:03:33;;;;;;;4.55;2.92;;;;;;;4.04;100.00;99099.59;4190819;28;20384;-76
2023/02/03 01:05:34;;;;;;;4.95;3.25;;;;;;;4.03;100.00;99096.03;4190969;28;20057;-76
2023/02/03 01:07:34;;;;;;;4.95;2.90;;;;;;;3.99;100.00;99083.31;4191446;28;20055;-76
2023/02/03 01:09:36;;;;;;;4.80;3.22;;;;;;;4.03;100.00;99084.28;4191645;28;20084;-76
2023/02/03 01:11:36;;;;;;;4.57;3.08;;;;;;;4.08;100.00;99095.91;4190125;28;20049;-76
2023/02/03 01:13:37;;;;;;;3.95;3.00;;;;;;;4.12;100.00;99085.09;4190886;28;20041;-76
2023/02/03 01:15:44;;;;;;;3.78;2.97;;;;;;;4.13;100.00;99068.34;4191638;28;20036;-76
2023/02/03 01:17:45;;;;;;;4.32;3.10;;;;;;;4.10;100.00;99066.25;4190517;28;20044;-76
2023/02/03 01:19:45;;;;;;;5.50;3.42;;;;;;;4.12;100.00;99054.97;4190737;28;20358;-76
2023/02/03 01:21:45;;;;;;;4.60;3.22;;;;;;;4.05;100.00;99051.91;4191523;28;20048;-76
2023/02/03 01:23:46;;;;;;;4.00;2.97;;;;;;;4.12;100.00;99055.78;4190728;28;20123;-76
2023/02/03 01:25:48;;;;;;;3.85;2.88;;;;;;;4.15;100.00;99055.16;4195943;28;20477;-76
2023/02/03 01:27:48;;;;;;;5.10;3.17;;;;;;;4.18;100.00;99062.72;4190452;28;20091;-76
2023/02/03 01:29:48;;;;;;;3.60;2.75;;;;;;;4.17;100.00;99063.84;4191033;28;20068;-76
2023/02/03 01:31:49;;;;;;;3.97;2.80;;;;;;;4.26;100.00;99057.56;4190373;28;20131;-76
2023/02/03 01:33:51;;;;;;;3.40;2.60;;;;;;;4.30;100.00;99051.09;4195989;28;20043;-76
2023/02/03 01:35:51;;;;;;;5.00;3.20;;;;;;;4.31;100.00;99047.25;4190952;28;20041;-76
2023/02/03 01:37:52;;;;;;;5.15;2.95;;;;;;;4.31;100.00;99060.97;4191395;28;20051;-76
2023/02/03 01:39:52;;;;;;;4.32;2.60;;;;;;;4.31;100.00;99050.00;4191004;28;20449;-76
2023/02/03 01:41:54;;;;;;;4.75;2.92;;;;;;;4.32;100.00;99043.41;4190769;28;20477;-76
2023/02/03 01:43:57;;;;;;;5.55;3.70;;;;;;;4.36;100.00;99040.81;4193220;28;20091;-76
2023/02/03 01:46:00;;;;;;;6.65;3.53;;;;;;;4.37;100.00;99032.25;4192684;28;20083;-76
2023/02/03 01:48:00;;;;;;;6.13;3.58;;;;;;;4.41;100.00;99032.44;4190698;28;20416;-76
2023/02/03 01:50:35;;;;;;;7.75;3.38;;;;;;;4.36;100.00;99033.38;4190698;28;20051;-76
2023/02/03 01:52:38;;;;;;;6.65;4.43;;;;;;;4.35;100.00;99039.19;4155449;28;20044;-76
2023/02/03 01:54:42;;;;;;;7.43;3.97;;;;;;;4.33;100.00;99042.25;4194232;28;20044;-76
2023/02/03 01:56:47;;;;;;;7.68;4.38;;;;;;;4.44;100.00;99045.47;4190895;28;20384;-76
2023/02/03 01:58:49;;;;;;;6.70;3.92;;;;;;;4.46;100.00;99052.22;4190538;28;20045;-76
2023/02/03 02:00:51;;;;;;;5.85;3.92;;;;;;;4.61;100.00;99044.66;4191523;28;20033;-76
2023/02/03 02:02:52;;;;;;;7.20;4.82;;;;;;;4.65;100.00;99048.38;4190181;28;20617;-76
2023/02/03 02:05:11;;;;;;;6.53;4.28;;;;;;;4.62;100.00;99032.56;4190741;28;20090;-76
2023/02/03 02:07:13;;;;;;;8.48;5.25;;;;;;;4.58;100.00;99035.16;4190646;28;20098;-76
2023/02/03 02:09:15;;;;;;;6.45;4.68;;;;;;;4.55;100.00;99013.06;4190865;28;20121;-76
2023/02/03 02:11:17;;;;;;;7.35;4.93;;;;;;;4.60;100.00;99027.41;4190732;28;20041;-76
2023/02/03 02:13:19;;;;;;;9.25;4.70;;;;;;;4.57;100.00;99025.31;4190242;28;20086;-76
2023/02/03 02:15:27;;;;;;;8.27;4.53;;;;;;;4.56;100.00;99028.38;4190729;28;20172;-76
2023/02/03 02:18:12;;;;;;;9.30;5.20;;;;;;;4.54;100.00;99036.09;4193107;28;20171;-76
2023/02/03 02:20:31;;;;;;;9.32;5.53;;;;;;;4.55;100.00;99034.97;4164835;28;20058;-76
2023/02/03 02:22:52;;;;;;;10.20;6.60;;;;;;;4.57;100.00;99030.81;4191012;28;20059;-76
2023/02/03 02:25:03;;;;;;;8.38;5.95;;;;;;;4.73;100.00;99025.63;4190300;28;20062;-76
2023/02/03 02:27:28;;;;;;;9.40;5.75;;;;;;;4.82;100.00;99026.41;4190400;28;20037;-76
2023/02/03 02:29:47;;;;;;;8.20;6.00;;;;;;;4.92;100.00;99038.94;4190345;28;20040;-76
2023/02/03 02:32:25;;;;;;;7.20;5.10;;;;;;;4.93;100.00;99032.31;4191663;28;20045;-76
2023/02/03 02:34:33;;;;;;;8.73;5.93;;;;;;;4.97;100.00;99034.09;4188865;28;20053;-76
2023/02/03 02:37:00;;;;;;;10.13;5.82;;;;;;;5.00;100.00;99033.44;4190491;28;20127;-76
2023/02/03 02:39:06;;;;;;;7.32;5.13;;;;;;;5.01;100.00;99026.00;4190370;28;20056;-76
2023/02/03 02:41:15;;;;;;;7.97;5.28;;;;;;;4.99;100.00;99023.59;4190918;28;20064;-76
2023/02/03 02:43:21;;;;;;;10.07;5.97;;;;;;;5.03;100.00;99027.28;4189684;28;20141;-76
2023/02/03 02:45:36;;;;;;;11.05;5.97;;;;;;;4.99;100.00;99028.28;4188966;28;20040;-76
2023/02/03 02:47:37;;;;;;;7.30;5.03;;;;;;;5.01;100.00;99036.97;4190446;28;20102;-76
2023/02/03 02:49:40;;;;;;;8.25;5.05;;;;;;;5.11;100.00;99044.84;4190327;28;20056;-76
2023/02/03 02:51:44;;;;;;;9.02;6.32;;;;;;;5.04;100.00;99055.50;4190184;28;20055;-76
2023/02/03 02:54:01;;;;;;;11.52;5.78;;;;;;;5.01;100.00;99043.28;4189112;28;20039;-77
2023/02/03 02:56:06;;;;;;;9.65;5.63;;;;;;;5.03;100.00;99031.97;4190083;28;20180;-76
2023/02/03 02:58:11;;;;;;;7.47;5.35;;;;;;;5.03;100.00;99029.22;4194881;28;20032;-77
2023/02/03 03:00:11;;;;;;;10.27;5.88;;;;;;;5.00;100.00;99022.47;4189193;28;20032;-76
2023/02/03 03:02:12;;;;;;;8.38;5.28;;;;;;;5.03;100.00;99010.81;4190509;28;20035;-76
2023/02/03 03:04:18;;;;;;;7.38;5.05;;;;;;;5.10;100.00;99015.00;4194625;28;20028;-76
2023/02/03 03:06:31;;;;;;;10.23;5.45;;;;;;;5.02;100.00;99014.69;4190670;28;20126;-76
2023/02/03 03:08:46;;;;;;;9.25;5.15;;;;;;;4.99;100.00;99003.59;4192634;28;20048;-76
2023/02/03 03:10:47;;;;;;;7.00;4.72;;;;;;;4.97;100.00;99003.94;4189997;28;20048;-77
2023/02/03 03:12:53;;;;;;;7.80;4.72;;;;;;;4.97;100.00;99014.91;4192214;28;20037;-76
2023/02/03 03:15:06;;;;;;;5.30;4.05;;;;;;;5.03;100.00;99004.53;4196786;28;20037;-76
2023/02/03 03:17:11;;;;;;;6.13;3.90;;;;;;;5.07;100.00;99016.47;4194931;28;20059;-76
2023/02/03 03:19:17;;;;;;;5.70;4.28;;;;;;;4.99;100.00;99020.84;4194106;28;20098;-76
2023/02/03 03:21:23;;;;;;;5.78;4.07;;;;;;;5.02;100.00;99039.38;4193008;28;20068;-77
2023/02/03 03:23:29;;;;;;;7.60;4.38;;;;;;;5.05;100.00;99046.97;4191356;28;20082;-76
2023/02/03 03:25:38;;;;;;;5.75;3.40;;;;;;;5.04;100.00;99034.38;4192977;28;20127;-77
2023/02/03 03:27:43;;;;;;;5.80;3.95;;;;;;;5.04;100.00;99041.78;4191814;28;20041;-77
2023/02/03 03:29:56;;;;;;;5.55;3.72;;;;;;;5.00;100.00;99033.44;4192698;28;20103;-77
2023/02/03 03:31:57;;;;;;;4.97;3.80;;;;;;;4.93;100.00;99021.34;4193011;28;20129;-77
2023/02/03 03:33:57;;;;;;;8.15;4.32;;;;;;;4.89;100.00;99021.22;4191845;28;20117;-77
2023/02/03 03:36:22;;;;;;;6.38;3.85;;;;;;;4.87;100.00;99019.91;4197252;28;20155;-76
2023/02/03 03:38:31;;;;;;;5.32;4.20;;;;;;;4.83;100.00;99003.31;4192195;28;20044;-77
2023/02/03 03:40:38;;;;;;;6.10;3.83;;;;;;;4.93;100.00;98982.97;4192730;28;20052;-76
2023/02/03 03:42:47;;;;;;;5.05;3.90;;;;;;;4.93;100.00;98961.84;4193016;28;20049;-77
2023/02/03 03:44:56;;;;;;;6.05;3.65;;;;;;;4.99;100.00;98976.19;4193347;28;20496;-77
2023/02/03 03:47:16;;;;;;;5.45;3.60;;;;;;;5.05;100.00;98985.84;4192368;28;20456;-77
2023/02/03 03:49:19;;;;;;;6.82;3.95;;;;;;;5.04;100.00;98985.00;4191763;28;20040;-77
2023/02/03 03:51:29;;;;;;;5.57;3.30;;;;;;;5.03;100.00;98983.41;4192420;28;20428;-77
2023/02/03 03:53:34;;;;;;;4.38;3.45;;;;;;;5.05;100.00;98974.88;4194611;28;20055;-77
2023/02/03 03:55:35;;;;;;;4.05;3.13;;;;;;;5.08;100.00;98982.44;4192909;28;20350;-76
2023/02/03 03:57:42;;;;;;;5.72;3.63;;;;;;;4.99;100.00;98985.22;4196337;28;20043;-77
2023/02/03 03:59:47;;;;;;;5.13;3.50;;;;;;;4.98;100.00;98977.31;4217645;28;20051;-77
2023/02/03 04:01:49;;;;;;;4.70;3.40;;;;;;;4.93;100.00;98980.22;4194325;28;20047;-76
2023/02/03 04:03:57;;;;;;;5.53;3.60;;;;;;;5.05;100.00;98996.81;4191634;28;20045;-77
2023/02/03 04:05:58;;;;;;;6.78;3.55;;;;;;;5.08;100.00;99001.63;4191915;28;20036;-77
2023/02/03 04:07:59;;;;;;;4.85;3.53;;;;;;;5.02;100.00;99001.00;4192506;28;20092;-76
2023/02/03 04:10:00;;;;;;;5.00;3.78;;;;;;;4.97;100.00;99000.38;4193866;28;20055;-77
2023/02/03 04:12:00;;;;;;;4.40;3.10;;;;;;;4.96;100.00;99005.03;4191946;28;20707;-77
2023/02/03 04:14:01;;;;;;;4.40;3.15;;;;;;;5.00;100.00;99016.19;4189930;28;20432;-76
2023/02/03 04:16:01;;;;;;;6.05;2.90;;;;;;;4.96;100.00;99026.97;4194986;28;20060;-77
2023/02/03 04:18:02;;;;;;;5.38;3.08;;;;;;;4.95;100.00;99022.63;4191315;28;20021;-77
2023/02/03 04:20:03;;;;;;;4.82;3.00;;;;;;;4.92;100.00;99001.34;4192184;28;20044;-77
2023/02/03 04:22:04;;;;;;;4.82;3.22;;;;;;;4.99;100.00;99003.59;4192329;28;20029;-77
2023/02/03 04:24:04;;;;;;;3.05;2.40;;;;;;;4.98;100.00;98997.31;4187406;28;20040;-77
2023/02/03 04:26:05;;;;;;;4.97;2.90;;;;;;;4.99;100.00;98996.19;4188868;28;20041;-77
2023/02/03 04:28:05;;;;;;;2.85;2.15;;;;;;;5.00;100.00;98997.78;4192318;28;20029;-77
2023/02/03 04:30:06;;;;;;;2.83;2.20;;;;;;;5.08;100.00;99001.63;4191402;28;20456;-77
2023/02/03 04:32:06;;;;;;;2.92;2.00;;;;;;;5.16;100.00;98998.03;4192243;28;20063;-77
2023/02/03 04:34:07;;;;;;;2.67;2.15;;;;;;;5.23;100.00;99009.31;4196047;28;20028;-76
2023/02/03 04:36:08;;;;;;;4.85;2.45;;;;;;;5.30;100.00;99003.31;4190335;28;20421;-77
2023/02/03 04:38:08;;;;;;;4.13;2.40;;;;;;;5.29;100.00;98986.03;4187541;28;20033;-77
2023/02/03 04:40:09;;;;;;;3.28;2.40;;;;;;;5.25;100.00;98976.06;4196627;28;20435;-77
2023/02/03 04:42:09;;;;;;;3.13;2.42;;;;;;;5.26;100.00;98974.91;4193882;28;20036;-76
2023/02/03 04:44:09;;;;;;;3.40;2.45;;;;;;;5.29;100.00;98952.28;4192350;28;20089;-77
2023/02/03 04:46:10;;;;;;;3.83;2.38;;;;;;;5.25;100.00;98945.88;4193478;28;20152;-77
2023/02/03 04:48:10;;;;;;;3.95;2.70;;;;;;;5.17;100.00;98939.31;4191198;28;20035;-77
2023/02/03 04:50:10;;;;;;;3.75;2.50;;;;;;;5.08;100.00;98933.06;4208907;28;20028;-77
2023/02/03 04:52:11;;;;;;;3.92;2.70;;;;;;;5.07;100.00;98945.97;4191688;28;20110;-77
2023/02/03 04:54:12;;;;;;;4.60;2.72;;;;;;;5.06;100.00;98938.06;4192700;28;20028;-77
2023/02/03 04:56:14;;;;;;;6.38;5.07;;;;;;;5.10;100.00;98929.97;4190503;28;20035;-77
2023/02/03 04:58:14;;;;;;;5.57;4.03;;;;;;;5.11;100.00;98928.84;4195725;28;20059;-77
2023/02/03 05:00:15;;;;;;;7.00;4.30;;;;;;;5.15;100.00;98933.34;4191477;28;20029;-77
2023/02/03 05:02:15;;;;;;;4.95;3.50;;;;;;;5.18;100.00;98927.19;4195784;28;20035;-76
2023/02/03 05:04:16;;;;;;;5.25;3.90;;;;;;;5.21;100.00;98936.69;4191583;28;20035;-77
2023/02/03 05:06:16;;;;;;;7.57;3.80;;;;;;;5.30;100.00;98912.78;4190777;28;20031;-77
2023/02/03 05:08:16;;;;;;;6.35;4.45;;;;;;;5.25;100.00;98904.72;4197238;28;20483;-77
2023/02/03 05:10:17;;;;;;;4.90;3.83;;;;;;;5.26;100.00;98890.66;4190879;28;20025;-77
2023/02/03 05:12:17;;;;;;;4.82;3.38;;;;;;;5.27;100.00;98892.28;4196404;28;20016;-77
2023/02/03 05:14:19;;;;;;;8.73;4.00;;;;;;;5.23;100.00;98893.28;4193164;28;20025;-77
2023/02/03 05:16:19;;;;;;;5.40;3.63;;;;;;;5.24;100.00;98883.91;4197190;28;20043;-77
2023/02/03 05:18:20;;;;;;;5.97;3.72;;;;;;;5.28;100.00;98879.34;4192052;28;20104;-77
2023/02/03 05:20:21;;;;;;;5.25;3.25;;;;;;;5.36;100.00;98894.97;4197391;28;20456;-77
2023/02/03 05:22:22;;;;;;;3.88;3.10;;;;;;;5.38;100.00;98898.19;4189765;28;20060;-77
2023/02/03 05:24:22;;;;;;;3.22;2.45;;;;;;;5.44;100.00;98907.81;4193315;28;20186;-76
2023/02/03 05:26:22;;;;;;;3.20;2.50;;;;;;;5.40;100.00;98892.38;4192449;28;20044;-76
2023/02/03 05:28:23;;;;;;;2.42;2.08;;;;;;;5.39;100.00;98888.81;4191404;28;20036;-77
2023/02/03 05:30:23;;;;;;;3.83;2.58;;;;;;;5.40;100.00;98897.84;4191119;28;20123;-77
2023/02/03 05:32:24;;;;;;;2.60;2.40;;;;;;;5.40;100.00;98912.38;4191668;28;20040;-77
2023/02/03 05:34:24;;;;;;;3.15;2.55;;;;;;;5.34;100.00;98914.50;4189462;28;20488;-77
2023/02/03 05:36:25;;;;;;;3.40;2.58;;;;;;;5.28;100.00;98907.59;4195545;28;20067;-77
2023/02/03 05:38:25;;;;;;;6.75;2.80;;;;;;;5.35;100.00;98899.66;4192608;28;20653;-76
2023/02/03 05:42:47;;;;;;;7.68;3.70;;;;;;;5.34;100.00;98897.25;4192882;28;20057;-77
2023/02/03 05:44:47;;;;;;;4.38;3.47;;;;;;;5.38;100.00;98903.69;4190834;28;20380;-77
2023/02/03 05:46:48;;;;;;;8.10;4.30;;;;;;;5.43;100.00;98878.78;4190229;28;20044;-77
2023/02/03 05:48:49;;;;;;;7.55;3.67;;;;;;;5.47;100.00;98898.13;4190970;28;20388;-77
2023/02/03 05:50:49;;;;;;;6.15;3.53;;;;;;;5.55;100.00;98911.78;4190628;28;20040;-76
2023/02/03 05:52:49;;;;;;;6.00;3.80;;;;;;;5.53;100.00;98889.34;4194149;28;20048;-76
2023/02/03 05:54:50;;;;;;;6.18;3.70;;;;;;;5.61;100.00;98906.88;4192266;28;20040;-77
2023/02/03 05:56:50;;;;;;;4.88;3.58;;;;;;;5.61;100.00;98904.94;4194534;28;20059;-77
2023/02/03 05:58:52;;;;;;;4.80;3.60;;;;;;;5.64;100.00;98896.06;4190650;28;20045;-76
2023/02/03 06:00:52;;;;;;;6.03;3.70;;;;;;;5.56;100.00;98896.94;4190535;28;20045;-76
2023/02/03 06:02:56;;;;;;;6.70;3.80;;;;;;;5.64;100.00;98865.84;4192812;28;20064;-76
2023/02/03 06:04:57;;;;;;;6.85;4.00;;;;;;;5.73;100.00;98881.47;4190330;28;20082;-76
2023/02/03 06:06:58;;;;;;;7.00;4.03;;;;;;;5.75;100.00;98881.91;4192315;28;20064;-76
2023/02/03 06:08:59;;;;;;;6.63;4.18;;;;;;;5.67;100.00;98858.09;4188332;28;20032;-76
2023/02/03 06:11:00;;;;;;;7.13;3.75;;;;;;;5.67;100.00;98849.84;4190950;28;20329;-77
2023/02/03 06:13:12;;;;;;;4.45;3.65;;;;;;;5.71;100.00;98870.81;4190205;28;20032;-76
2023/02/03 06:15:13;;;;;;;5.97;3.37;;;;;;;5.77;100.00;98849.44;4102005;28;20118;-76
2023/02/03 06:17:13;;;;;;;8.40;3.78;;;;;;;5.76;100.00;98845.06;4200465;28;20499;-76
2023/02/03 06:19:14;;;;;;;8.82;4.03;;;;;;;5.78;100.00;98854.56;4190337;28;20044;-76
2023/02/03 06:21:14;;;;;;;5.65;4.07;;;;;;;5.72;100.00;98842.22;4190441;28;20048;-76
2023/02/03 06:23:16;;;;;;;5.30;3.47;;;;;;;5.74;100.00;98836.38;4189713;28;20052;-76
2023/02/03 06:25:16;;;;;;;6.68;3.97;;;;;;;5.76;100.00;98850.56;4190366;28;20048;-76
2023/02/03 06:27:16;;;;;;;5.70;3.58;;;;;;;5.73;100.00;98845.75;4190167;28;20492;-76
2023/02/03 06:29:17;;;;;;;5.65;3.40;;;;;;;5.72;100.00;98844.97;4190973;28;20048;-76
2023/02/03 06:31:17;;;;;;;7.53;3.30;;;;;;;5.75;100.00;98858.00;4190992;28;20055;-76
2023/02/03 06:33:20;;;;;;;4.57;3.72;;;;;;;5.69;100.00;98855.78;4190658;28;20038;-76
2023/02/03 06:35:21;;;;;;;5.70;3.80;;;;;;;5.63;100.00;98853.28;4191958;28;20040;-76
2023/02/03 06:37:21;;;;;;;8.10;4.22;;;;;;;5.69;100.00;98864.84;4189678;28;20044;-76
2023/02/03 06:39:21;;;;;;;6.95;4.13;;;;;;;5.72;100.00;98869.66;4190183;28;20076;-76
2023/02/03 06:41:26;;;;;;;7.13;4.60;;;;;;;5.73;100.00;98873.22;4190275;28;20491;-76
2023/02/03 06:43:26;;;;;;;13.50;6.20;;;;;;;5.76;100.00;98867.03;4189479;28;20037;-76
2023/02/03 06:45:27;;;;;;;7.03;4.32;;;;;;;5.74;100.00;98870.13;4190556;28;20123;-76
2023/02/03 06:47:27;;;;;;;8.55;4.85;;;;;;;5.74;100.00;98877.56;4192207;28;20040;-76
2023/02/03 06:49:28;;;;;;;7.00;4.75;;;;;;;5.75;100.00;98873.69;4192020;28;20504;-76
2023/02/03 06:51:29;;;;;;;7.90;4.60;;;;;;;5.80;100.00;98857.81;4199637;28;20043;-76
2023/02/03 06:53:29;;;;;;;11.95;4.97;;;;;;;5.80;100.00;98857.00;4192510;28;20397;-76
2023/02/03 06:55:29;;;;;;;8.43;4.55;;;;;;;5.78;100.00;98862.81;4196806;28;20080;-76
2023/02/03 06:57:30;;;;;;;7.68;3.92;;;;;;;5.83;100.00;98839.84;4193771;28;20610;-76
2023/02/03 06:59:30;;;;;;;14.02;6.95;;;;;;;5.80;100.00;98840.53;4193293;28;20123;-76
2023/02/03 07:01:31;;;;;;;7.53;4.10;;;;;;;5.76;100.00;98845.06;4193692;28;20055;-76
2023/02/03 07:03:31;;;;;;;6.35;2.80;;;;;;;5.77;100.00;98854.91;4192280;28;20048;-76
2023/02/03 07:05:31;;;;;;;5.50;3.35;;;;;;;5.83;100.00;98834.34;4193374;28;20040;-76
2023/02/03 07:07:32;;;;;;;4.57;2.55;;;;;;;5.84;100.00;98842.25;4193220;28;20452;-76
2023/02/03 07:09:33;;;;;;;4.35;2.63;;;;;;;5.91;100.00;98808.78;4193001;28;20048;-76
2023/02/03 07:11:33;;;;;;;5.15;3.13;;;;;;;5.95;100.00;98828.91;4193748;28;20052;-76
2023/02/03 07:13:33;;;;;;;4.38;2.78;;;;;;;5.96;100.00;98810.50;4192669;28;20037;-76
2023/02/03 07:15:34;;;;;;;6.10;3.13;;;;;;;5.95;100.00;98819.88;4194074;28;20447;-76
2023/02/03 07:17:34;;;;;;;5.63;2.65;;;;;;;6.03;100.00;98810.75;4193508;28;20114;-76
2023/02/03 07:19:35;;;;;;;3.92;2.72;;;;;;;6.02;100.00;98807.19;4192920;28;20037;-76
2023/02/03 07:21:35;;;;;;;4.18;2.78;;;;;;;6.10;100.00;98792.56;4192774;28;20060;-76
2023/02/03 07:23:36;;;;;;;5.88;2.85;;;;;;;6.09;100.00;98790.97;4192875;28;20037;-76
2023/02/03 07:25:36;;;;;;;4.43;2.50;;;;;;;6.07;100.00;98779.53;4198581;28;20495;-76
2023/02/03 07:27:36;;;;;;;4.03;2.95;;;;;;;6.10;100.00;98776.09;4194160;28;20056;-76
2023/02/03 07:29:37;;;;;;;5.35;3.25;;;;;;;6.07;100.00;98778.72;4192496;28;20071;-76
2023/02/03 07:31:37;;;;;;;4.15;2.95;;;;;;;6.07;100.00;98793.25;4193394;28;20095;-76
2023/02/03 07:33:38;;;;;;;4.68;3.10;;;;;;;6.07;100.00;98809.75;4192476;28;20060;-76
2023/02/03 07:35:38;;;;;;;5.07;2.90;;;;;;;6.10;100.00;98809.06;4192653;28;20071;-76
2023/02/03 07:37:38;;;;;;;4.05;2.72;;;;;;;6.06;100.00;98821.88;4192879;28;20048;-76
2023/02/03 07:39:39;;;;;;;5.30;2.90;;;;;;;6.08;100.00;98818.78;4193068;28;20466;-76
2023/02/03 07:41:39;;;;;;;6.43;3.00;;;;;;;6.06;100.00;98810.88;4192605;28;20049;-76
2023/02/03 07:43:39;;;;;;;6.53;3.00;;;;;;;6.16;100.00;98829.69;4193765;28;20067;-76
2023/02/03 07:45:40;;;;;;;7.22;2.95;;;;;;;6.13;100.00;98813.88;4196900;28;20053;-76
2023/02/03 07:47:42;;;;;;;5.00;2.95;;;;;;;6.10;100.00;98828.28;4192348;28;20074;-76
2023/02/03 07:49:42;;;;;;;7.33;3.87;;;;;;;6.12;100.00;98825.19;4190118;28;20048;-76
2023/02/03 07:51:43;;;;;;;7.47;4.20;;;;;;;6.11;100.00;98818.88;4192667;28;20267;-76
2023/02/03 07:53:44;;;;;;;7.00;3.95;;;;;;;6.09;100.00;98810.19;4191857;28;20040;-76
2023/02/03 07:55:44;;;;;;;4.43;3.25;;;;;;;6.11;100.00;98823.59;4192819;28;20132;-75
2023/02/03 07:57:44;;;;;;;4.30;3.28;;;;;;;6.13;100.00;98805.63;4192109;28;20096;-76
2023/02/03 07:59:45;;;;;;;4.32;3.42;;;;;;;6.15;100.00;98830.03;4192276;28;20040;-76
2023/02/03 08:01:45;;;;;;;5.85;3.33;;;;;;;6.14;100.00;98833.91;4192088;28;20135;-76
2023/02/03 08:03:45;;;;;;;5.03;3.35;;;;;;;6.11;100.00;98842.81;4191388;28;20392;-76
2023/02/03 08:05:46;;;;;;;5.25;3.72;;;;;;;6.14;100.00;98836.66;4193047;28;20044;-76
2023/02/03 08:07:47;;;;;;;4.78;3.15;;;;;;;6.10;100.00;98835.72;4193654;28;20132;-76
2023/02/03 08:09:47;;;;;;;4.35;3.35;;;;;;;6.07;100.00;98844.66;4192422;28;20044;-76
2023/02/03 08:11:47;;;;;;;5.05;3.10;;;;;;;6.12;100.00;98822.44;4192547;28;20067;-76
2023/02/03 08:13:48;;;;;;;7.30;3.15;;;;;;;6.08;100.00;98819.59;4191261;28;20045;-76
2023/02/03 08:15:48;;;;;;;5.60;3.13;;;;;;;6.09;100.00;98807.44;4192395;28;20041;-76
2023/02/03 08:17:48;;;;;;;5.13;3.10;;;;;;;6.19;100.00;98812.50;4192333;28;20067;-76
2023/02/03 08:19:49;;;;;;;8.27;3.35;;;;;;;6.19;100.00;98806.19;4191488;28;20132;-76
2023/02/03 08:21:49;;;;;;;4.53;2.83;;;;;;;6.27;100.00;98805.31;4192494;28;20067;-76
2023/02/03 08:23:49;;;;;;;5.07;3.03;;;;;;;6.34;100.00;98811.03;4191439;28;20051;-76
2023/02/03 08:25:53;;;;;;;5.85;3.13;;;;;;;6.30;100.00;98812.88;4192232;28;20040;-76
2023/02/03 08:27:53;;;;;;;5.72;3.35;;;;;;;6.37;100.00;98826.03;4191365;28;20203;-76
2023/02/03 08:29:53;;;;;;;6.53;2.72;;;;;;;6.38;100.00;98817.47;4191834;28;20041;-76
2023/02/03 08:31:54;;;;;;;3.17;2.58;;;;;;;6.37;100.00;98823.28;4192169;28;20048;-76
2023/02/03 08:33:55;;;;;;;4.60;2.92;;;;;;;6.35;100.00;98812.63;4191034;28;20040;-76
2023/02/03 08:35:55;;;;;;;4.70;2.45;;;;;;;6.31;100.00;98814.47;4193479;28;20044;-76
2023/02/03 08:37:56;;;;;;;5.03;3.28;;;;;;;6.29;100.00;98815.94;4195240;28;20051;-76
2023/02/03 08:39:56;;;;;;;3.40;2.47;;;;;;;6.31;100.00;98814.47;4192586;28;20089;-76
2023/02/03 08:41:56;;;;;;;5.45;3.35;;;;;;;6.32;100.00;98804.28;4191575;28;20067;-76
2023/02/03 08:43:57;;;;;;;5.47;3.05;;;;;;;6.32;100.00;98809.78;4191255;28;20076;-76
2023/02/03 08:46:02;;;;;;;4.93;2.88;;;;;;;6.30;100.00;98817.56;4191682;28;20052;-76
2023/02/03 08:48:02;;;;;;;6.10;3.10;;;;;;;6.31;100.00;98795.25;4191201;28;20032;-76
2023/02/03 08:50:07;;;;;;;5.03;3.13;;;;;;;6.26;100.00;98809.19;4191701;28;20090;-76
2023/02/03 08:52:10;;;;;;;6.43;3.15;;;;;;;6.31;100.00;98798.00;4191657;28;20025;-76
2023/02/03 08:54:11;;;;;;;5.20;3.28;;;;;;;6.35;100.00;98806.34;4190511;28;20027;-76
2023/02/03 08:56:12;;;;;;;9.38;3.67;;;;;;;6.41;100.00;98788.50;4191990;28;20028;-76
2023/02/03 08:58:12;;;;;;;3.65;2.83;;;;;;;6.49;100.00;98798.56;4191270;28;20301;-76
2023/02/03 09:00:13;;;;;;;3.53;2.50;;;;;;;6.55;100.00;98799.97;4191751;28;20031;-76
2023/02/03 09:02:16;;;;;;;3.60;2.65;;;;;;;6.53;100.00;98798.69;4191201;28;20388;-76
2023/02/03 09:04:18;;;;;;;;;;;;;;;6.54;100.00;98792.84;4191404;28;20064;-76
2023/02/03 09:06:18;;;;;;;4.25;2.28;;;;;;;6.54;100.00;98786.53;4191391;28;19908;-76
2023/02/03 09:08:18;;;;;;;3.55;2.42;;;;;;;6.55;100.00;98794.47;4191291;28;20051;-76
2023/02/03 09:13:34;;;;;;;4.15;2.58;;;;;;;6.44;100.00;98766.59;4190851;28;20113;-76
2023/02/03 09:15:34;;;;;;;5.22;2.50;;;;;;;6.51;100.00;98781.72;4192079;28;20847;-76
2023/02/03 09:17:34;;;;;;;3.50;2.22;;;;;;;6.58;100.00;98774.50;4190572;28;20048;-76
2023/02/03 09:19:35;;;;;;;3.85;2.80;;;;;;;6.59;100.00;98781.63;4191034;28;20142;-76
2023/02/03 09:21:35;;;;;;;3.67;2.40;;;;;;;6.62;100.00;98785.63;4191326;28;20465;-76
2023/02/03 09:23:36;;;;;;;3.88;2.80;;;;;;;6.56;100.00;98785.06;4190770;28;20098;-77
2023/02/03 09:25:36;;;;;;;4.35;2.83;;;;;;;6.57;100.00;98775.66;4191224;28;20051;-76
2023/02/03 09:27:37;;;;;;;4.00;2.55;;;;;;;6.57;100.00;98770.16;4191058;28;20041;-76
2023/02/03 09:29:37;;;;;;;4.95;2.40;;;;;;;6.57;100.00;98761.91;4193230;28;20036;-76
2023/02/03 09:31:37;;;;;;;6.07;2.10;;;;;;;6.65;100.00;98765.69;4190617;28;20380;-76
2023/02/03 09:33:39;;;;;;;4.55;2.50;;;;;;;6.67;100.00;98744.16;4192175;28;20050;-76
2023/02/03 09:35:39;;;;;;;2.83;2.05;;;;;;;6.59;100.00;98729.38;4191509;28;20067;-76
2023/02/03 09:37:39;;;;;;;4.35;2.03;;;;;;;6.66;100.00;98731.56;4190900;28;20135;-77
2023/02/03 09:39:40;;;;;;;3.92;2.20;;;;;;;6.69;100.00;98731.66;4193506;28;20393;-76
2023/02/03 09:42:19;;;;;;;3.85;2.15;;;;;;;6.72;100.00;98719.97;4194450;28;20325;-76
2023/02/03 09:44:37;;;;;;;2.55;1.85;;;;;;;6.74;100.00;98723.19;4123862;28;20089;-76